createdAt,value
2023-01-28T00:00:51.703Z,3.30
2023-01-28T00:03:18.644Z,3.40
2023-01-28T00:05:45.572Z,3.40
2023-01-28T00:08:14.767Z,3.30
2023-01-28T00:10:43.173Z,3.40
2023-01-28T00:13:12.325Z,3.40
2023-01-28T00:15:39.364Z,3.40
2023-01-28T00:18:06.219Z,3.40
2023-01-28T00:20:33.134Z,3.40
2023-01-28T00:23:00.011Z,3.40
2023-01-28T00:25:26.935Z,3.50
2023-01-28T00:27:53.817Z,3.60
2023-01-28T00:30:20.833Z,3.60
2023-01-28T00:32:47.982Z,3.70
2023-01-28T00:35:16.019Z,3.70
2023-01-28T00:37:46.109Z,3.60
2023-01-28T00:40:13.312Z,3.60
2023-01-28T00:42:40.565Z,3.60
2023-01-28T00:45:07.926Z,3.50
2023-01-28T00:47:34.935Z,3.60
2023-01-28T00:50:01.931Z,3.60
2023-01-28T00:52:31.437Z,3.70
2023-01-28T00:54:58.409Z,3.70
2023-01-28T00:57:26.463Z,3.60
2023-01-28T00:59:53.526Z,3.60
2023-01-28T01:02:22.081Z,3.60
2023-01-28T01:05:01.172Z,3.60
2023-01-28T01:07:41.444Z,3.60
2023-01-28T01:10:13.120Z,3.60
2023-01-28T01:12:40.195Z,3.60
2023-01-28T01:15:10.300Z,3.60
2023-01-28T01:17:38.238Z,3.50
2023-01-28T01:20:08.335Z,3.50
2023-01-28T01:22:36.019Z,3.60
2023-01-28T01:25:04.055Z,3.60
2023-01-28T01:27:31.839Z,3.50
2023-01-28T01:29:59.071Z,3.60
2023-01-28T01:32:30.271Z,3.60
2023-01-28T01:34:57.222Z,3.60
2023-01-28T01:37:25.469Z,3.70
2023-01-28T01:39:52.323Z,3.70
2023-01-28T01:42:19.326Z,3.80
2023-01-28T01:44:56.013Z,3.90
2023-01-28T01:47:25.788Z,3.90
2023-01-28T01:49:52.813Z,3.90
2023-01-28T01:52:22.631Z,4.00
2023-01-28T01:54:51.083Z,3.90
2023-01-28T01:57:24.833Z,3.90
2023-01-28T01:59:51.923Z,3.90
2023-01-28T02:02:18.804Z,3.90
2023-01-28T02:04:45.910Z,3.90
2023-01-28T02:07:16.805Z,3.90
2023-01-28T02:09:43.867Z,3.80
2023-01-28T02:12:16.786Z,3.70
2023-01-28T02:14:50.424Z,3.70
2023-01-28T02:17:17.335Z,3.80
2023-01-28T02:19:58.202Z,3.90
2023-01-28T02:22:51.091Z,3.90
2023-01-28T02:25:34.530Z,4.00
2023-01-28T02:28:10.942Z,4.00
2023-01-28T02:30:40.511Z,3.90
2023-01-28T02:33:34.839Z,3.90
2023-01-28T02:36:13.856Z,3.90
2023-01-28T02:38:43.742Z,4.00
2023-01-28T02:41:28.967Z,4.00
2023-01-28T02:43:55.800Z,4.10
2023-01-28T02:47:04.937Z,4.10
2023-01-28T02:49:46.631Z,4.10
2023-01-28T02:52:43.631Z,4.20
2023-01-28T02:55:18.569Z,4.20
2023-01-28T02:57:55.988Z,4.20
2023-01-28T03:00:34.716Z,4.20
2023-01-28T03:03:08.898Z,4.20
2023-01-28T03:05:38.805Z,4.20
2023-01-28T03:08:25.968Z,4.10
2023-01-28T03:11:12.583Z,4.10
2023-01-28T03:13:57.983Z,4.10
2023-01-28T03:16:43.243Z,4.20
2023-01-28T03:19:29.892Z,4.20
2023-01-28T03:22:15.375Z,4.20
2023-01-28T03:25:04.212Z,4.20
2023-01-28T03:28:05.017Z,4.20
2023-01-28T03:30:58.290Z,4.20
2023-01-28T03:33:53.843Z,4.30
2023-01-28T03:36:39.650Z,4.30
2023-01-28T03:39:10.244Z,4.30
2023-01-28T03:41:37.213Z,4.30
2023-01-28T03:44:22.551Z,4.40
2023-01-28T03:46:49.413Z,4.40
2023-01-28T03:49:17.107Z,4.40
2023-01-28T03:51:46.154Z,4.40
2023-01-28T03:54:13.465Z,4.40
2023-01-28T03:56:40.508Z,4.40
2023-01-28T03:59:07.813Z,4.40
2023-01-28T04:01:34.817Z,4.40
2023-01-28T04:04:02.000Z,4.50
2023-01-28T04:06:29.138Z,4.40
2023-01-28T04:09:14.715Z,4.40
2023-01-28T04:12:07.547Z,4.40
2023-01-28T04:14:43.118Z,4.50
2023-01-28T04:17:14.179Z,4.40
2023-01-28T04:19:42.845Z,4.50
2023-01-28T04:22:10.814Z,4.50
2023-01-28T04:24:39.108Z,4.50
2023-01-28T04:27:06.039Z,4.50
2023-01-28T04:29:32.938Z,4.50
2023-01-28T04:32:14.506Z,4.50
2023-01-28T04:34:59.999Z,4.50
2023-01-28T04:37:47.866Z,4.50
2023-01-28T04:40:31.860Z,4.50
2023-01-28T04:43:04.360Z,4.50
2023-01-28T04:45:48.083Z,4.60
2023-01-28T04:48:34.962Z,4.60
2023-01-28T04:51:32.152Z,4.60
2023-01-28T04:54:17.631Z,4.60
2023-01-28T04:56:44.615Z,4.60
2023-01-28T04:59:11.481Z,4.60
2023-01-28T05:01:39.104Z,4.50
2023-01-28T05:04:06.873Z,4.60
2023-01-28T05:06:37.470Z,4.50
2023-01-28T05:09:11.657Z,4.50
2023-01-28T05:11:39.369Z,4.60
2023-01-28T05:14:07.388Z,4.60
2023-01-28T05:16:46.354Z,4.60
2023-01-28T05:19:13.682Z,4.60
2023-01-28T05:21:42.364Z,4.60
2023-01-28T05:24:25.442Z,4.60
2023-01-28T05:26:53.694Z,4.60
2023-01-28T05:29:20.609Z,4.60
2023-01-28T05:31:48.020Z,4.50
2023-01-28T05:34:15.752Z,4.50
2023-01-28T05:36:44.377Z,4.50
2023-01-28T05:39:25.848Z,4.50
2023-01-28T05:41:53.181Z,4.60
2023-01-28T05:44:20.079Z,4.60
2023-01-28T05:47:05.791Z,4.60
2023-01-28T05:49:46.479Z,4.60
2023-01-28T05:52:51.699Z,4.60
2023-01-28T05:55:24.154Z,4.60
2023-01-28T05:57:51.085Z,4.60
2023-01-28T06:00:21.275Z,4.60
2023-01-28T06:02:48.353Z,4.60
2023-01-28T06:05:15.884Z,4.70
2023-01-28T06:07:46.891Z,4.70
2023-01-28T06:10:14.753Z,4.70
2023-01-28T06:12:41.827Z,4.70
2023-01-28T06:15:38.092Z,4.80
2023-01-28T06:18:31.193Z,4.80
2023-01-28T06:20:58.693Z,4.80
2023-01-28T06:23:25.678Z,4.70
2023-01-28T06:25:56.694Z,4.70
2023-01-28T06:28:24.928Z,4.70
2023-01-28T06:30:54.845Z,4.70
2023-01-28T06:33:22.377Z,4.60
2023-01-28T06:35:49.195Z,4.60
2023-01-28T06:38:16.651Z,4.60
2023-01-28T06:40:43.470Z,4.60
2023-01-28T06:43:10.295Z,4.60
2023-01-28T06:45:37.167Z,4.70
2023-01-28T06:48:05.673Z,4.60
2023-01-28T06:50:36.265Z,4.70
2023-01-28T06:53:03.442Z,4.70
2023-01-28T06:55:30.324Z,4.60
2023-01-28T06:57:57.135Z,4.60
2023-01-28T07:00:24.140Z,4.60
2023-01-28T07:02:51.098Z,4.50
2023-01-28T07:05:18.165Z,4.50
2023-01-28T07:07:46.573Z,4.50
2023-01-28T07:10:13.849Z,4.50
2023-01-28T07:12:40.942Z,4.50
2023-01-28T07:15:08.710Z,4.50
2023-01-28T07:17:35.497Z,4.50
2023-01-28T07:20:02.350Z,4.50
2023-01-28T07:22:29.189Z,4.60
2023-01-28T07:24:56.061Z,4.60
2023-01-28T07:27:22.831Z,4.60
2023-01-28T07:29:49.677Z,4.60
2023-01-28T07:32:16.524Z,4.60
2023-01-28T07:34:43.333Z,4.60
2023-01-28T07:37:10.144Z,4.70
2023-01-28T07:39:37.111Z,4.70
2023-01-28T07:42:04.106Z,4.70
2023-01-28T07:44:38.723Z,4.70
2023-01-28T07:47:06.086Z,4.60
2023-01-28T07:49:36.171Z,4.60
2023-01-28T07:52:02.987Z,4.70
2023-01-28T07:54:29.792Z,4.70
2023-01-28T07:56:56.676Z,4.70
2023-01-28T07:59:23.561Z,4.70
2023-01-28T08:01:50.430Z,4.70
2023-01-28T08:04:17.335Z,4.70
2023-01-28T08:06:44.256Z,4.70
2023-01-28T08:09:11.093Z,4.70
2023-01-28T08:11:38.508Z,4.70
2023-01-28T08:14:05.599Z,4.70
2023-01-28T08:16:32.481Z,4.70
2023-01-28T08:18:59.267Z,4.70
2023-01-28T08:21:26.132Z,4.80
2023-01-28T08:23:52.999Z,4.70
2023-01-28T08:26:19.933Z,4.80
2023-01-28T08:28:46.849Z,4.70
2023-01-28T08:31:13.947Z,4.70
2023-01-28T08:33:40.832Z,4.70
2023-01-28T08:36:08.305Z,4.70
2023-01-28T08:38:35.078Z,4.70
2023-01-28T08:41:01.919Z,4.70
2023-01-28T08:43:28.819Z,4.80
2023-01-28T08:45:55.637Z,4.80
2023-01-28T08:48:22.415Z,4.80
2023-01-28T08:50:50.857Z,4.90
2023-01-28T08:53:19.762Z,4.90
2023-01-28T08:55:46.856Z,4.90
2023-01-28T08:58:15.242Z,4.90
2023-01-28T09:00:42.295Z,5.00
2023-01-28T09:03:09.146Z,5.00
2023-01-28T09:05:38.853Z,5.00
2023-01-28T09:08:07.188Z,5.00
2023-01-28T09:10:34.164Z,5.10
2023-01-28T09:13:05.863Z,5.10
2023-01-28T09:15:33.538Z,5.20
2023-01-28T09:18:00.431Z,5.20
2023-01-28T09:20:27.790Z,5.20
2023-01-28T09:22:54.690Z,5.20
2023-01-28T09:25:21.938Z,5.20
2023-01-28T09:27:48.826Z,5.30
2023-01-28T09:30:16.554Z,5.20
2023-01-28T09:32:44.898Z,5.20
2023-01-28T09:35:12.147Z,5.30
2023-01-28T09:37:39.018Z,5.30
2023-01-28T09:40:06.544Z,5.30
2023-01-28T09:42:45.696Z,5.30
2023-01-28T09:45:17.868Z,5.30
2023-01-28T09:47:54.312Z,5.40
2023-01-28T09:50:26.748Z,5.40
2023-01-28T09:52:59.245Z,5.40
2023-01-28T09:55:33.686Z,5.50
2023-01-28T09:58:00.680Z,5.50
2023-01-28T10:01:09.290Z,5.60
2023-01-28T10:03:48.280Z,5.60
2023-01-28T10:06:23.827Z,5.60
2023-01-28T10:09:02.665Z,5.70
2023-01-28T10:11:42.594Z,5.70
2023-01-28T10:14:38.986Z,5.70
2023-01-28T10:17:43.291Z,5.80
2023-01-28T10:20:14.131Z,5.80
2023-01-28T10:22:47.059Z,5.90
2023-01-28T10:25:20.229Z,5.90
2023-01-28T10:27:48.783Z,5.90
2023-01-28T10:30:21.908Z,5.90
2023-01-28T10:32:51.634Z,5.90
2023-01-28T10:35:18.461Z,5.90
2023-01-28T10:37:45.326Z,6.00
2023-01-28T10:40:17.105Z,6.00
2023-01-28T10:42:44.919Z,6.10
2023-01-28T10:45:14.779Z,6.10
2023-01-28T10:47:50.593Z,6.20
2023-01-28T10:50:25.331Z,6.20
2023-01-28T10:53:02.537Z,6.20
2023-01-28T10:55:50.726Z,6.20
2023-01-28T10:58:20.191Z,6.30
2023-01-28T11:00:47.102Z,6.30
2023-01-28T11:03:18.549Z,6.30
2023-01-28T11:05:52.450Z,6.30
2023-01-28T11:08:19.640Z,6.30
2023-01-28T11:10:47.066Z,6.40
2023-01-28T11:13:25.046Z,6.30
2023-01-28T11:15:54.173Z,6.40
2023-01-28T11:18:24.908Z,6.40
2023-01-28T11:20:56.901Z,6.40
2023-01-28T11:23:26.607Z,6.30
2023-01-28T11:26:06.781Z,6.30
2023-01-28T11:28:33.710Z,6.30
2023-01-28T11:31:01.531Z,6.40
2023-01-28T11:33:37.559Z,6.40
2023-01-28T11:36:21.228Z,6.40
2023-01-28T11:38:54.902Z,6.40
2023-01-28T11:41:29.978Z,6.30
2023-01-28T11:43:57.927Z,6.30
2023-01-28T11:46:40.782Z,6.40
2023-01-28T11:49:26.377Z,6.50
2023-01-28T11:52:01.884Z,6.50
2023-01-28T11:54:47.670Z,6.60
2023-01-28T11:57:20.386Z,6.60
2023-01-28T12:00:06.671Z,6.60
2023-01-28T12:02:54.442Z,6.60
2023-01-28T12:05:27.340Z,6.60
2023-01-28T12:07:55.757Z,6.60
2023-01-28T12:10:51.911Z,6.60
2023-01-28T12:13:29.939Z,6.60
2023-01-28T12:16:12.512Z,6.60
2023-01-28T12:18:42.697Z,6.70
2023-01-28T12:21:29.723Z,6.70
2023-01-28T12:24:05.708Z,6.60
2023-01-28T12:26:38.247Z,6.70
2023-01-28T12:29:07.904Z,6.70
2023-01-28T12:31:50.877Z,6.70
2023-01-28T12:34:29.799Z,6.70
2023-01-28T12:37:00.201Z,6.60
2023-01-28T12:39:43.124Z,6.70
2023-01-28T12:42:13.889Z,6.70
2023-01-28T12:44:42.289Z,6.80
2023-01-28T12:47:13.081Z,6.80
2023-01-28T12:49:40.728Z,6.80
2023-01-28T12:52:16.915Z,6.80
2023-01-28T12:55:02.560Z,6.80
2023-01-28T12:57:30.334Z,6.80
2023-01-28T13:00:15.760Z,6.80
2023-01-28T13:02:43.167Z,6.90
2023-01-28T13:05:09.977Z,6.90
2023-01-28T13:07:41.558Z,6.90
2023-01-28T13:10:15.160Z,6.90
2023-01-28T13:12:42.039Z,6.90
2023-01-28T13:15:12.583Z,7.00
2023-01-28T13:17:39.602Z,7.00
2023-01-28T13:20:16.951Z,6.90
2023-01-28T13:22:44.030Z,7.00
2023-01-28T13:25:14.443Z,7.00
2023-01-28T13:27:41.498Z,7.00
2023-01-28T13:30:34.670Z,7.00
2023-01-28T13:33:05.589Z,7.00
2023-01-28T13:35:33.424Z,7.10
2023-01-28T13:38:00.743Z,7.10
2023-01-28T13:40:27.728Z,7.10
2023-01-28T13:42:58.623Z,7.00
2023-01-28T13:45:25.654Z,7.00
2023-01-28T13:47:57.315Z,7.10
2023-01-28T13:50:32.488Z,7.10
2023-01-28T13:52:59.889Z,7.10
2023-01-28T13:55:42.768Z,7.10
2023-01-28T13:58:30.165Z,7.10
2023-01-28T14:01:09.002Z,7.10
2023-01-28T14:03:40.666Z,7.10
2023-01-28T14:06:26.486Z,7.10
2023-01-28T14:09:04.493Z,7.20
2023-01-28T14:11:40.938Z,7.20
2023-01-28T14:14:29.266Z,7.10
2023-01-28T14:17:18.168Z,7.10
2023-01-28T14:19:44.903Z,7.10
2023-01-28T14:22:17.069Z,7.10
2023-01-28T14:24:43.818Z,7.20
2023-01-28T14:27:31.294Z,7.10
2023-01-28T14:30:16.614Z,7.10
2023-01-28T14:32:46.921Z,7.10
2023-01-28T14:35:16.849Z,7.10
2023-01-28T14:37:43.770Z,7.10
2023-01-28T14:40:14.874Z,7.10
2023-01-28T14:42:52.531Z,7.10
2023-01-28T14:45:29.817Z,7.10
2023-01-28T14:48:23.048Z,7.10
2023-01-28T14:51:05.865Z,7.10
2023-01-28T14:53:51.515Z,7.20
2023-01-28T14:56:18.314Z,7.20
2023-01-28T14:58:46.298Z,7.10
2023-01-28T15:01:39.441Z,7.10
2023-01-28T15:04:06.206Z,7.10
2023-01-28T15:06:36.085Z,7.10
2023-01-28T15:09:07.065Z,7.10
2023-01-28T15:11:33.900Z,7.20
2023-01-28T15:14:00.640Z,7.20
2023-01-28T15:16:31.716Z,7.20
2023-01-28T15:18:59.474Z,7.10
2023-01-28T15:21:26.982Z,7.10
2023-01-28T15:23:55.313Z,7.10
2023-01-28T15:26:22.881Z,7.20
2023-01-28T15:28:49.834Z,7.10
2023-01-28T15:31:20.315Z,7.10
2023-01-28T15:33:55.269Z,7.00
2023-01-28T15:36:22.177Z,7.00
2023-01-28T15:38:48.883Z,7.10
2023-01-28T15:41:15.697Z,7.00
2023-01-28T15:43:44.143Z,7.00
2023-01-28T15:46:11.555Z,7.00
2023-01-28T15:48:38.355Z,7.00
2023-01-28T15:51:06.084Z,6.90
2023-01-28T15:53:43.184Z,6.90
2023-01-28T15:56:10.780Z,6.90
2023-01-28T15:58:41.723Z,6.90
2023-01-28T16:01:08.903Z,6.90
2023-01-28T16:03:42.303Z,6.80
2023-01-28T16:06:09.763Z,6.80
2023-01-28T16:08:53.484Z,6.80
2023-01-28T16:11:21.736Z,6.80
2023-01-28T16:13:48.550Z,6.80
2023-01-28T16:16:15.408Z,6.80
2023-01-28T16:18:56.015Z,6.80
2023-01-28T16:21:24.334Z,6.80
2023-01-28T16:23:51.933Z,6.90
2023-01-28T16:26:22.812Z,6.80
2023-01-28T16:28:49.949Z,6.80
2023-01-28T16:31:16.921Z,6.80
2023-01-28T16:33:43.747Z,6.80
2023-01-28T16:36:14.702Z,6.70
2023-01-28T16:38:41.618Z,6.70
2023-01-28T16:41:12.092Z,6.70
2023-01-28T16:43:39.095Z,6.70
2023-01-28T16:46:09.206Z,6.70
2023-01-28T16:48:36.615Z,6.70
2023-01-28T16:51:03.816Z,6.70
2023-01-28T16:53:32.622Z,6.70
2023-01-28T16:55:59.362Z,6.70
2023-01-28T16:58:26.369Z,6.70
2023-01-28T17:00:53.340Z,6.70
2023-01-28T17:03:20.200Z,6.80
2023-01-28T17:05:46.915Z,6.80
2023-01-28T17:08:13.757Z,6.70
2023-01-28T17:10:40.605Z,6.70
2023-01-28T17:13:07.337Z,6.70
2023-01-28T17:15:34.892Z,6.70
2023-01-28T17:18:01.721Z,6.70
2023-01-28T17:20:28.566Z,6.70
2023-01-28T17:22:55.363Z,6.70
2023-01-28T17:25:22.074Z,6.70
2023-01-28T17:27:49.289Z,6.70
2023-01-28T17:30:18.055Z,6.60
2023-01-28T17:32:44.818Z,6.60
2023-01-28T17:35:12.326Z,6.60
2023-01-28T17:37:39.171Z,6.60
2023-01-28T17:40:06.255Z,6.60
2023-01-28T17:42:32.983Z,6.60
2023-01-28T17:45:03.194Z,6.60
2023-01-28T17:47:30.891Z,6.60
2023-01-28T17:49:57.855Z,6.60
2023-01-28T17:52:24.721Z,6.60
2023-01-28T17:54:51.533Z,6.60
2023-01-28T17:57:18.288Z,6.60
2023-01-28T17:59:47.552Z,6.60
2023-01-28T18:02:14.600Z,6.60
2023-01-28T18:04:41.629Z,6.60
2023-01-28T18:07:10.996Z,6.60
2023-01-28T18:09:38.404Z,6.60
2023-01-28T18:12:05.443Z,6.60
2023-01-28T18:14:32.300Z,6.70
2023-01-28T18:16:59.052Z,6.70
2023-01-28T18:19:25.851Z,6.70
2023-01-28T18:21:53.614Z,6.60
2023-01-28T18:24:24.196Z,6.70
2023-01-28T18:26:51.750Z,6.70
2023-01-28T18:29:20.800Z,6.70
2023-01-28T18:31:48.405Z,6.70
2023-01-28T18:34:15.268Z,6.70
2023-01-28T18:36:42.234Z,6.70
2023-01-28T18:39:12.732Z,6.70
2023-01-28T18:41:39.762Z,6.60
2023-01-28T18:44:07.686Z,6.70
2023-01-28T18:46:34.605Z,6.60
2023-01-28T18:49:01.447Z,6.70
2023-01-28T18:51:30.312Z,6.60
2023-01-28T18:54:00.664Z,6.70
2023-01-28T18:56:28.002Z,6.70
2023-01-28T18:58:58.446Z,6.60
2023-01-28T19:01:25.445Z,6.70
2023-01-28T19:03:53.219Z,6.60
2023-01-28T19:06:20.018Z,6.50
2023-01-28T19:08:50.907Z,6.50
2023-01-28T19:11:17.698Z,6.50
2023-01-28T19:13:44.506Z,6.50
2023-01-28T19:16:11.359Z,6.60
2023-01-28T19:18:38.544Z,6.50
2023-01-28T19:21:05.762Z,6.50
2023-01-28T19:23:47.931Z,6.60
2023-01-28T19:26:21.025Z,6.50
2023-01-28T19:28:49.208Z,6.50
2023-01-28T19:31:16.257Z,6.50
2023-01-28T19:33:43.046Z,6.50
2023-01-28T19:36:10.325Z,6.50
2023-01-28T19:38:37.187Z,6.60
2023-01-28T19:41:04.755Z,6.60
2023-01-28T19:43:31.710Z,6.60
2023-01-28T19:45:59.133Z,6.50
2023-01-28T19:48:25.901Z,6.50
2023-01-28T19:50:52.826Z,6.50
2023-01-28T19:53:19.625Z,6.50
2023-01-28T19:55:46.403Z,6.50
2023-01-28T19:58:13.132Z,6.50
2023-01-28T20:00:40.025Z,6.50
2023-01-28T20:03:08.224Z,6.40
2023-01-28T20:05:35.340Z,6.50
2023-01-28T20:08:02.068Z,6.50
2023-01-28T20:10:28.868Z,6.40
2023-01-28T20:12:55.700Z,6.50
2023-01-28T20:15:22.565Z,6.50
2023-01-28T20:17:49.486Z,6.50
2023-01-28T20:20:16.533Z,6.50
2023-01-28T20:22:43.361Z,6.50
2023-01-28T20:25:10.211Z,6.50
2023-01-28T20:27:36.983Z,6.50
2023-01-28T20:30:04.029Z,6.40
2023-01-28T20:32:30.998Z,6.40
2023-01-28T20:34:57.815Z,6.40
2023-01-28T20:37:24.551Z,6.50
2023-01-28T20:39:52.118Z,6.50
2023-01-28T20:42:18.851Z,6.50
2023-01-28T20:44:45.692Z,6.50
2023-01-28T20:47:12.461Z,6.50
2023-01-28T20:49:39.272Z,6.50
2023-01-28T20:52:06.066Z,6.50
2023-01-28T20:54:32.886Z,6.50
2023-01-28T20:56:59.645Z,6.50
2023-01-28T20:59:26.577Z,6.50
2023-01-28T21:01:55.939Z,6.50
2023-01-28T21:04:24.712Z,6.50
2023-01-28T21:06:51.499Z,6.50
2023-01-28T21:09:18.264Z,6.50
2023-01-28T21:11:44.953Z,6.50
2023-01-28T21:14:16.751Z,6.50
2023-01-28T21:16:44.721Z,6.60
2023-01-28T21:19:11.573Z,6.60
2023-01-28T21:21:42.496Z,6.60
2023-01-28T21:24:11.274Z,6.60
2023-01-28T21:26:38.136Z,6.60
2023-01-28T21:29:04.980Z,6.60
2023-01-28T21:31:31.724Z,6.60
2023-01-28T21:33:58.774Z,6.60
2023-01-28T21:36:25.677Z,6.50
2023-01-28T21:38:52.938Z,6.50
2023-01-28T21:41:19.755Z,6.50
2023-01-28T21:43:52.155Z,6.50
2023-01-28T21:46:19.889Z,6.50
2023-01-28T21:48:46.952Z,6.50
2023-01-28T21:51:32.274Z,6.50
2023-01-28T21:53:59.090Z,6.50
2023-01-28T21:56:25.925Z,6.50
2023-01-28T21:59:11.535Z,6.50
2023-01-28T22:01:38.468Z,6.60
2023-01-28T22:04:05.711Z,6.60
2023-01-28T22:06:32.540Z,6.60
2023-01-28T22:08:59.394Z,6.50
2023-01-28T22:11:26.219Z,6.50
2023-01-28T22:13:52.985Z,6.50
2023-01-28T22:16:19.795Z,6.60
2023-01-28T22:18:47.594Z,6.50
2023-01-28T22:21:14.434Z,6.50
2023-01-28T22:23:41.243Z,6.50
2023-01-28T22:26:08.132Z,6.40
2023-01-28T22:28:35.926Z,6.40
2023-01-28T22:31:06.446Z,6.40
2023-01-28T22:33:33.390Z,6.30
2023-01-28T22:36:00.221Z,6.30
2023-01-28T22:38:28.915Z,6.30
2023-01-28T22:40:55.808Z,6.40
2023-01-28T22:43:22.661Z,6.40
2023-01-28T22:45:49.386Z,6.40
2023-01-28T22:48:16.535Z,6.50
2023-01-28T22:50:44.040Z,6.50
2023-01-28T22:53:11.636Z,6.50
2023-01-28T22:55:38.994Z,6.60
2023-01-28T22:58:07.568Z,6.50
2023-01-28T23:00:34.478Z,6.50
2023-01-28T23:03:01.876Z,6.50
2023-01-28T23:05:29.083Z,6.50
2023-01-28T23:08:14.260Z,6.50
2023-01-28T23:10:47.555Z,6.50
2023-01-28T23:13:18.146Z,6.50
2023-01-28T23:16:04.509Z,6.50
2023-01-28T23:18:51.942Z,6.50
2023-01-28T23:21:37.561Z,6.50
2023-01-28T23:24:21.034Z,6.50
2023-01-28T23:26:51.945Z,6.50
2023-01-28T23:29:23.821Z,6.50
2023-01-28T23:31:52.625Z,6.60
2023-01-28T23:34:19.381Z,6.60
2023-01-28T23:36:46.265Z,6.60
2023-01-28T23:39:12.975Z,6.70
2023-01-28T23:41:39.735Z,6.60
2023-01-28T23:44:06.440Z,6.60
2023-01-28T23:46:39.426Z,6.60
2023-01-28T23:49:08.722Z,6.70
2023-01-28T23:51:35.457Z,6.60
2023-01-28T23:54:02.227Z,6.60
2023-01-28T23:56:28.951Z,6.60
2023-01-28T23:58:56.283Z,6.60
